Time;durP1;ratioP1;P1;durP2;ratioP2;P2;SDS_P1;SDS_P2;PMS_P1;PMS_P2;Temp;Humidity;BMP_temperature;BMP_pressure;BME280_temperature;BME280_humidity;BME280_pressure;Samples;Min_cycle;Max_cycle;Signal;HPM_P1;HPM_P2
2022/07/21 00:01:36;;;;;;;3.12;1.90;;;;;;;25.25;31.87;100017.78;7683214;32;39898;-72
2022/07/21 00:05:52;;;;;;;2.30;1.70;;;;;;;24.88;32.54;100018.16;7683045;32;37958;-71
2022/07/21 00:10:09;;;;;;;5.20;1.80;;;;;;;25.03;32.46;100014.53;7682998;32;37215;-73
2022/07/21 00:14:25;;;;;;;3.50;1.80;;;;;;;25.02;32.33;100012.91;7682851;32;39360;-73
2022/07/21 00:18:41;;;;;;;4.93;1.62;;;;;;;24.86;32.68;100012.16;7683310;32;39927;-73
2022/07/21 00:22:58;;;;;;;2.28;1.70;;;;;;;24.77;32.83;100011.53;7696462;32;37916;-73
2022/07/21 00:27:14;;;;;;;4.85;1.77;;;;;;;24.70;33.08;100013.00;7713375;32;37800;-72
2022/07/21 00:31:30;;;;;;;5.12;1.95;;;;;;;24.67;33.21;100013.72;7712876;32;39452;-73
2022/07/21 00:35:46;;;;;;;7.05;1.83;;;;;;;24.61;33.51;100017.97;7712817;32;40857;-72
2022/07/21 00:40:04;;;;;;;4.12;1.73;;;;;;;24.64;33.63;100005.25;7712489;32;38713;-72
2022/07/21 00:44:25;;;;;;;3.70;1.52;;;;;;;24.54;34.18;100004.66;7712712;32;37034;-72
2022/07/21 00:48:41;;;;;;;2.67;1.70;;;;;;;24.60;34.04;100002.41;7697329;32;39452;-74
2022/07/21 00:52:58;;;;;;;2.55;1.70;;;;;;;24.67;34.21;100007.34;7685947;32;39910;-73
2022/07/21 00:57:15;;;;;;;4.05;1.95;;;;;;;24.60;34.70;100002.41;7685723;32;38765;-73
2022/07/21 01:01:31;;;;;;;7.37;1.70;;;;;;;24.49;34.72;99995.72;7685944;32;37305;-73
2022/07/21 01:05:48;;;;;;;2.58;1.62;;;;;;;24.52;34.23;99989.41;7685851;32;40252;-73
2022/07/21 01:10:04;;;;;;;4.78;2.03;;;;;;;24.52;34.07;99989.41;7672272;32;40073;-72
2022/07/21 01:14:20;;;;;;;2.90;1.62;;;;;;;24.45;34.19;99989.25;7685673;32;37996;-73
2022/07/21 01:18:37;;;;;;;4.10;2.10;;;;;;;24.57;33.63;99997.53;7686353;32;37016;-73
2022/07/21 01:22:56;;;;;;;4.75;1.87;;;;;;;24.65;33.38;99981.81;7685653;32;39017;-73
2022/07/21 01:27:12;;;;;;;5.82;1.77;;;;;;;24.76;33.17;99985.63;7685551;32;40035;-72
2022/07/21 01:31:28;;;;;;;3.80;1.85;;;;;;;24.70;32.81;99975.97;7684657;32;38000;-73
2022/07/21 01:35:45;;;;;;;2.42;1.52;;;;;;;24.72;32.64;99971.63;7685492;32;37209;-73
2022/07/21 01:44:36;;;;;;;4.57;1.92;;;;;;;24.42;33.20;99981.62;7686610;32;40061;-72
2022/07/21 01:48:52;;;;;;;5.05;1.60;;;;;;;24.35;33.31;99983.06;7685329;32;37969;-72
2022/07/21 01:53:08;;;;;;;4.00;1.80;;;;;;;24.44;32.99;99993.19;7685312;32;37113;-73
2022/07/21 01:57:24;;;;;;;5.25;2.05;;;;;;;24.18;33.80;99994.53;7685283;32;39258;-73
2022/07/21 02:01:40;;;;;;;2.55;1.65;;;;;;;23.78;34.64;99996.28;7685900;32;40834;-73
2022/07/21 02:06:07;;;;;;;4.03;1.65;;;;;;;23.57;35.38;99996.50;7685097;32;39559;-73
2022/07/21 02:10:23;;;;;;;3.65;1.92;;;;;;;23.44;35.90;99994.94;7685268;32;37094;-73
2022/07/21 02:14:39;;;;;;;3.65;1.85;;;;;;;23.39;37.35;99995.19;7703912;32;39529;-73
2022/07/21 02:18:56;;;;;;;2.47;1.55;;;;;;;23.19;37.73;100008.12;7711620;32;40812;-73
2022/07/21 02:23:16;;;;;;;5.30;1.77;;;;;;;23.15;37.88;100013.56;7711473;32;38745;-73
2022/07/21 02:27:32;;;;;;;2.95;2.05;;;;;;;23.17;38.87;100014.03;7711647;32;38027;-74
2022/07/21 02:31:48;;;;;;;3.95;1.92;;;;;;;23.04;39.20;100013.22;7711600;32;39363;-73
2022/07/21 02:36:05;;;;;;;4.90;1.73;;;;;;;22.95;38.42;100012.53;7711655;32;39736;-73
2022/07/21 02:40:21;;;;;;;2.55;1.77;;;;;;;23.05;38.02;100000.13;7687259;32;37857;-73
2022/07/21 02:44:37;;;;;;;4.47;1.90;;;;;;;23.07;38.01;100008.94;7684524;32;36790;-74
2022/07/21 02:48:53;;;;;;;4.93;2.03;;;;;;;23.05;37.95;100012.06;7684712;32;39027;-73
2022/07/21 02:53:13;;;;;;;2.92;1.65;;;;;;;23.27;37.41;100004.38;7684608;32;39876;-74
2022/07/21 02:57:32;;;;;;;2.78;1.92;;;;;;;23.30;37.24;99998.12;7684536;32;38003;-73
2022/07/21 03:01:49;;;;;;;5.97;2.15;;;;;;;23.43;36.83;99999.69;7684432;32;37730;-73
2022/07/21 03:06:05;;;;;;;3.97;2.00;;;;;;;23.28;36.92;100003.22;7684414;32;39638;-73
2022/07/21 03:10:21;;;;;;;7.37;2.20;;;;;;;23.44;36.47;99992.97;7686436;32;40618;-72
2022/07/21 03:14:37;;;;;;;3.83;1.80;;;;;;;23.45;36.23;99990.97;7710821;32;38484;-73
2022/07/21 03:18:53;;;;;;;5.07;2.20;;;;;;;23.52;36.20;99993.16;7710811;32;37016;-73
2022/07/21 03:23:11;;;;;;;4.22;2.03;;;;;;;23.23;36.86;99993.16;7710801;32;39483;-72
2022/07/21 03:27:26;;;;;;;6.07;1.80;;;;;;;23.15;36.76;99998.88;7710650;32;41236;-72
2022/07/21 03:31:43;;;;;;;5.97;2.00;;;;;;;23.32;36.00;99995.78;7710679;32;38018;-72
2022/07/21 03:35:59;;;;;;;2.95;1.95;;;;;;;23.38;36.47;99996.34;7710412;32;37551;-72
2022/07/21 03:40:18;;;;;;;3.47;2.08;;;;;;;23.35;36.94;100005.41;7710300;32;39025;-72
2022/07/21 03:44:34;;;;;;;4.18;2.10;;;;;;;23.22;37.06;100007.41;7710481;32;39982;-73
2022/07/21 03:48:50;;;;;;;7.45;1.80;;;;;;;23.28;36.88;100005.19;7710050;32;37949;-72
2022/07/21 03:53:09;;;;;;;6.07;2.10;;;;;;;23.28;37.18;99999.63;7710244;32;36590;-72
2022/07/21 03:57:25;;;;;;;4.32;1.95;;;;;;;23.25;37.57;100001.97;7713393;32;39377;-72
2022/07/21 04:01:41;;;;;;;6.28;1.92;;;;;;;23.11;38.08;100007.09;7713560;32;38169;-73
2022/07/21 04:05:57;;;;;;;2.90;2.00;;;;;;;23.23;37.93;100014.59;7688880;32;38053;-73
2022/07/21 04:10:15;;;;;;;3.67;2.20;;;;;;;23.18;38.09;100007.31;7686607;32;37068;-73
2022/07/21 04:14:31;;;;;;;4.87;2.22;;;;;;;22.96;38.86;100005.81;7686421;32;39371;-73
2022/07/21 04:18:47;;;;;;;3.30;2.20;;;;;;;23.18;38.71;99998.97;7686414;32;39759;-73
2022/07/21 04:23:03;;;;;;;3.75;1.90;;;;;;;23.29;39.03;100006.81;7686389;32;38574;-71
2022/07/21 04:27:19;;;;;;;4.47;2.00;;;;;;;23.36;38.59;100007.03;7688274;32;36722;-70
2022/07/21 04:31:35;;;;;;;4.30;2.05;;;;;;;23.50;38.01;100003.84;7712923;32;39002;-71
2022/07/21 04:35:51;;;;;;;5.62;2.00;;;;;;;23.57;38.33;100004.84;7712661;32;40561;-76
2022/07/21 04:40:10;;;;;;;4.45;2.10;;;;;;;24.12;36.86;100007.13;7711904;32;38011;-75
2022/07/21 04:44:26;;;;;;;2.47;1.70;;;;;;;24.26;36.39;100004.72;7712336;32;37044;-70
2022/07/21 04:48:43;;;;;;;4.55;2.25;;;;;;;24.47;36.37;100007.22;7712403;32;39210;-71
2022/07/21 04:52:59;;;;;;;4.07;1.85;;;;;;;24.36;35.79;100008.94;7712738;32;39820;-71
2022/07/21 04:57:15;;;;;;;3.47;1.65;;;;;;;24.35;36.03;100010.09;7708574;32;37890;-72
2022/07/21 05:01:31;;;;;;;2.85;2.00;;;;;;;24.46;36.41;100002.03;7706591;32;36801;-72
2022/07/21 05:05:47;;;;;;;10.70;2.45;;;;;;;24.61;36.46;100006.81;7687974;32;40043;-73
2022/07/21 05:10:09;;;;;;;6.53;2.08;;;;;;;24.84;36.30;100001.38;7685739;32;39889;-73
2022/07/21 05:14:25;;;;;;;6.95;2.30;;;;;;;25.27;35.53;100001.53;7685636;32;38144;-73
2022/07/21 05:18:41;;;;;;;10.52;2.40;;;;;;;25.28;35.81;100012.34;7685592;32;37060;-74
2022/07/21 05:22:57;;;;;;;6.75;2.28;;;;;;;25.68;35.00;100004.72;7685813;32;40093;-73
2022/07/21 05:27:13;;;;;;;4.22;2.00;;;;;;;25.36;36.43;100021.66;7698875;32;39623;-74
2022/07/21 05:31:29;;;;;;;4.80;2.00;;;;;;;25.80;35.20;100004.59;7705282;32;228149;-73
2022/07/21 05:35:45;;;;;;;9.55;2.55;;;;;;;25.84;34.54;100005.44;7712202;32;37811;-74
2022/07/21 05:40:02;;;;;;;6.20;1.80;;;;;;;25.73;35.32;100012.81;7707438;32;39337;-75
2022/07/21 05:44:18;;;;;;;5.18;2.62;;;;;;;25.73;34.33;100015.59;7685392;32;40053;-73
2022/07/21 05:48:34;;;;;;;4.00;2.30;;;;;;;25.97;34.67;100022.06;7685002;32;38034;-73
2022/07/21 05:52:50;;;;;;;11.43;2.03;;;;;;;26.08;35.06;100020.28;7685798;32;37126;-73
2022/07/21 05:57:06;;;;;;;6.55;2.30;;;;;;;26.41;33.61;100018.84;7685180;32;40048;-72
2022/07/21 06:01:22;;;;;;;6.15;2.10;;;;;;;26.11;34.66;100016.72;7695125;32;39861;-73
2022/07/21 06:05:38;;;;;;;10.23;2.15;;;;;;;26.24;34.13;100026.53;7690025;32;38792;-73
2022/07/21 06:09:54;;;;;;;6.35;2.08;;;;;;;26.35;33.50;100015.53;7681842;32;36702;-73
2022/07/21 06:14:10;;;;;;;3.50;2.05;;;;;;;26.40;32.95;100023.63;7681683;32;40094;-73
2022/07/21 06:18:27;;;;;;;5.68;2.33;;;;;;;26.19;33.93;100024.06;7683721;32;40600;-74
2022/07/21 06:22:43;;;;;;;4.55;2.00;;;;;;;26.72;32.06;100022.56;7684978;32;38799;-74
2022/07/21 06:26:59;;;;;;;4.12;1.98;;;;;;;26.89;32.53;100008.06;7685089;32;36880;-74
2022/07/21 06:31:21;;;;;;;5.53;1.87;;;;;;;27.02;32.00;100007.81;7685004;32;40180;-74
2022/07/21 06:35:38;;;;;;;2.80;1.85;;;;;;;27.20;31.49;100008.88;7684962;32;39673;-74
2022/07/21 06:39:54;;;;;;;9.77;2.17;;;;;;;27.67;30.77;100007.47;7684570;32;37945;-74
2022/07/21 06:44:10;;;;;;;5.43;2.10;;;;;;;27.98;29.12;100008.22;7684779;32;38011;-73
2022/07/21 06:48:26;;;;;;;5.05;2.15;;;;;;;28.09;28.61;100011.91;7684790;32;39430;-74
2022/07/21 06:52:42;;;;;;;9.52;2.10;;;;;;;28.61;28.19;100003.59;7684604;32;41012;-73
2022/07/21 06:56:58;;;;;;;16.25;3.15;;;;;;;28.71;28.67;99999.25;7684528;32;37921;-72
2022/07/21 07:01:16;;;;;;;12.77;2.50;;;;;;;28.67;29.84;100004.03;7684470;32;37320;-73
2022/07/21 07:05:33;;;;;;;10.05;2.60;;;;;;;28.94;29.71;100012.22;7684469;32;39927;-73
2022/07/21 07:09:49;;;;;;;7.28;2.10;;;;;;;29.37;29.09;100006.84;7684502;32;40775;-73
2022/07/21 07:14:05;;;;;;;8.55;2.40;;;;;;;29.23;29.96;100012.41;7684153;32;37930;-73
2022/07/21 07:18:33;;;;;;;5.05;2.17;;;;;;;29.58;29.61;100006.13;7684255;32;37173;-72
2022/07/21 07:22:49;;;;;;;4.32;2.30;;;;;;;29.55;29.75;100002.09;7683650;32;40067;-74
2022/07/21 07:27:06;;;;;;;5.47;2.45;;;;;;;29.90;29.57;100006.22;7683988;32;40954;-72
2022/07/21 07:31:22;;;;;;;7.25;2.17;;;;;;;30.04;29.74;100004.66;7682694;32;38970;-73
2022/07/21 07:35:38;;;;;;;10.50;2.10;;;;;;;30.57;28.83;100003.88;7683875;32;37049;-72
2022/07/21 07:39:54;;;;;;;9.65;2.58;;;;;;;30.76;28.76;100001.88;7683554;32;39345;-79
2022/07/21 07:44:11;;;;;;;8.85;2.28;;;;;;;30.89;28.67;99995.41;7683585;32;39945;-76
2022/07/21 07:48:27;;;;;;;6.62;2.65;;;;;;;31.16;27.47;99989.31;7683387;32;38028;-76
2022/07/21 07:52:44;;;;;;;7.00;2.50;;;;;;;31.40;26.86;99976.34;7683542;32;36835;-75
2022/07/21 07:57:00;;;;;;;10.30;2.30;;;;;;;31.63;26.46;99989.12;7683484;32;40099;-75
2022/07/21 08:01:17;;;;;;;8.90;2.62;;;;;;;31.83;24.92;99986.59;7683176;32;40832;-76
2022/07/21 08:05:33;;;;;;;4.62;2.28;;;;;;;31.95;23.04;99988.91;7683122;32;37885;-75
2022/07/21 08:09:49;;;;;;;11.10;2.80;;;;;;;32.58;21.87;99982.38;7683115;32;38101;-75
2022/07/21 08:14:05;;;;;;;7.55;2.42;;;;;;;32.79;21.68;99972.94;7683061;32;40090;-75
2022/07/21 08:18:21;;;;;;;5.03;2.30;;;;;;;32.78;21.24;99982.62;7682791;32;40809;-75
2022/07/21 08:22:37;;;;;;;3.90;2.33;;;;;;;33.28;20.32;99976.41;7682510;32;38648;-76
2022/07/21 08:26:54;;;;;;;4.72;2.10;;;;;;;33.52;20.10;99968.03;7682562;32;37858;-76
2022/07/21 08:31:10;;;;;;;5.43;2.20;;;;;;;33.67;19.08;99974.31;7682488;32;40323;-76
2022/07/21 08:35:27;;;;;;;6.18;2.10;;;;;;;33.82;18.81;99960.75;7682481;32;41037;-76
2022/07/21 08:39:43;;;;;;;4.78;2.10;;;;;;;33.84;18.65;99958.31;7686308;32;37718;-73
2022/07/21 08:43:59;;;;;;;4.78;2.12;;;;;;;33.59;18.50;99965.09;7693709;32;37609;-76
2022/07/21 08:48:19;;;;;;;9.45;2.10;;;;;;;33.71;18.91;99962.97;7685975;32;39924;-75
2022/07/21 08:52:35;;;;;;;12.35;2.90;;;;;;;33.43;18.65;99962.13;7685840;32;39938;-75
2022/07/21 08:56:51;;;;;;;5.40;2.30;;;;;;;34.10;18.31;99958.69;7685778;32;37700;-75
2022/07/21 09:01:07;;;;;;;4.05;2.10;;;;;;;34.08;18.07;99944.19;7685534;32;36917;-75
2022/07/21 09:05:23;;;;;;;7.40;2.00;;;;;;;33.78;17.79;99941.03;7684035;32;40114;-76
2022/07/21 09:09:39;;;;;;;3.25;1.80;;;;;;;34.18;18.17;99946.06;7685625;32;39790;-74
2022/07/21 09:14:10;;;;;;;6.12;1.75;;;;;;;33.94;17.82;99937.53;7685663;32;37745;-75
2022/07/21 09:18:26;;;;;;;9.18;1.75;;;;;;;34.03;18.00;99929.34;7685647;32;37057;-74
2022/07/21 09:23:00;;;;;;;12.48;2.08;;;;;;;33.97;17.84;99928.22;7684620;32;39532;-75
2022/07/21 09:27:23;;;;;;;13.00;2.05;;;;;;;33.50;19.14;99925.28;7684453;32;39654;-76
2022/07/21 09:31:39;;;;;;;4.15;1.65;;;;;;;33.94;19.24;99920.56;7689002;32;38579;-75
2022/07/21 09:36:02;;;;;;;2.22;1.45;;;;;;;34.60;17.47;99915.44;7685384;32;36973;-76
2022/07/21 09:40:18;;;;;;;2.75;1.65;;;;;;;34.84;17.22;99912.53;7685116;32;39344;-75
2022/07/21 09:44:35;;;;;;;12.02;2.12;;;;;;;35.07;17.36;99903.97;7685057;32;40817;-75
2022/07/21 09:48:54;;;;;;;3.20;1.75;;;;;;;35.02;17.26;99906.53;7684073;32;38561;-75
2022/07/21 09:53:52;;;;;;;4.00;1.98;;;;;;;35.83;16.96;99896.63;7683724;32;38170;-75
2022/07/21 09:58:08;;;;;;;5.50;2.30;;;;;;;35.29;16.51;99892.19;7684096;32;39297;-75
2022/07/21 10:02:26;;;;;;;8.95;2.37;;;;;;;35.43;16.97;99891.88;7685043;32;40761;-75
2022/07/21 10:06:45;;;;;;;4.40;2.00;;;;;;;35.47;16.79;99895.41;7685078;32;37133;-74
2022/07/21 10:11:01;;;;;;;3.62;1.80;;;;;;;35.76;16.17;99889.09;7684983;32;37114;-74
2022/07/21 10:15:33;;;;;;;5.45;1.98;;;;;;;35.88;15.93;99882.72;7683920;32;39108;-74
2022/07/21 10:20:08;;;;;;;6.37;1.87;;;;;;;36.13;15.35;99886.94;7684745;32;39927;-76
2022/07/21 10:24:27;;;;;;;2.97;1.70;;;;;;;36.42;14.55;99875.62;7683705;32;38724;-75
2022/07/21 10:28:44;;;;;;;11.63;1.87;;;;;;;36.45;15.82;99876.78;7683878;32;37029;-77
2022/07/21 10:33:00;;;;;;;3.65;1.77;;;;;;;36.80;15.33;99871.34;7685024;32;40121;-76
2022/07/21 10:37:44;;;;;;;4.40;1.55;;;;;;;36.94;14.95;99865.25;7683656;32;40088;-77
2022/07/21 10:42:12;;;;;;;4.03;1.65;;;;;;;37.04;14.57;99871.87;7632098;32;38800;-75
2022/07/21 10:46:34;;;;;;;4.90;1.90;;;;;;;36.66;14.07;99867.66;7632176;32;37129;-76
2022/07/21 10:50:51;;;;;;;2.55;1.65;;;;;;;37.02;14.67;99860.16;7632042;32;39517;-75
2022/07/21 10:55:10;;;;;;;4.55;1.90;;;;;;;37.36;13.89;99861.56;7632128;32;39960;-76
2022/07/21 10:59:26;;;;;;;4.32;1.80;;;;;;;37.14;13.66;99853.69;7631658;32;38776;-76
2022/07/21 11:03:43;;;;;;;3.50;1.98;;;;;;;36.77;14.48;99849.53;7630962;32;37357;-77
2022/07/21 11:08:14;;;;;;;5.18;2.08;;;;;;;37.52;13.89;99846.44;7642734;32;39179;-77
2022/07/21 11:12:56;;;;;;;9.50;1.93;;;;;;;37.45;14.36;99843.84;7631673;32;40827;-77
2022/07/21 11:17:31;;;;;;;4.65;2.37;;;;;;;37.53;14.01;99837.47;7631488;32;37854;-76
2022/07/21 11:21:47;;;;;;;4.75;1.90;;;;;;;37.44;14.32;99831.66;7631611;32;37067;-76
2022/07/21 11:26:04;;;;;;;5.75;1.80;;;;;;;37.78;13.03;99829.38;7631460;32;40029;-75
2022/07/21 11:30:20;;;;;;;7.50;2.60;;;;;;;37.80;12.92;99829.72;7631597;32;40005;-76
2022/07/21 11:34:50;;;;;;;6.03;1.73;;;;;;;37.68;12.67;99822.78;7631206;32;38688;-76
2022/07/21 11:39:10;;;;;;;6.87;1.97;;;;;;;38.29;12.64;99821.47;7651151;32;38428;-76
2022/07/21 11:43:45;;;;;;;3.90;2.10;;;;;;;38.34;12.83;99814.38;7683598;32;39434;-77
2022/07/21 11:48:03;;;;;;;5.80;2.50;;;;;;;38.48;12.98;99808.19;7683577;32;40728;-76
2022/07/21 11:52:24;;;;;;;4.87;2.20;;;;;;;38.86;12.67;99803.50;7683327;32;37659;-76
2022/07/21 11:56:40;;;;;;;6.15;2.12;;;;;;;38.14;13.12;99809.03;7683351;32;37073;-76
2022/07/21 12:01:07;;;;;;;3.17;1.62;;;;;;;38.75;12.97;99794.59;7683217;32;39395;-76
2022/07/21 12:05:25;;;;;;;3.35;1.80;;;;;;;38.83;12.95;99788.16;7683126;32;39943;-76
2022/07/21 12:09:43;;;;;;;5.85;2.00;;;;;;;38.94;12.11;99789.78;7682865;32;38714;-76
2022/07/21 12:14:06;;;;;;;4.05;1.95;;;;;;;39.37;11.81;99788.06;7681856;32;37242;-77
2022/07/21 12:18:26;;;;;;;6.70;1.90;;;;;;;38.41;12.79;99785.66;7686110;32;39416;-78
2022/07/21 12:22:46;;;;;;;4.95;1.90;;;;;;;39.19;12.05;99769.66;7686154;32;40810;-77
2022/07/21 12:27:12;;;;;;;3.33;1.70;;;;;;;39.81;11.56;99773.59;7686149;32;37938;-76
2022/07/21 12:31:32;;;;;;;4.15;1.65;;;;;;;39.41;11.51;99768.75;7684873;32;37934;-76
2022/07/21 12:36:04;;;;;;;4.40;2.05;;;;;;;40.01;11.47;99758.09;7686105;32;40154;-77
2022/07/21 12:40:25;;;;;;;5.03;2.05;;;;;;;39.90;11.08;99761.41;7686076;32;39265;-76
2022/07/21 12:44:41;;;;;;;10.63;2.45;;;;;;;39.47;11.20;99758.31;7685907;32;38455;-76
2022/07/21 12:49:10;;;;;;;7.00;2.40;;;;;;;38.93;11.73;99756.84;7685915;32;36866;-76
2022/07/21 12:53:29;;;;;;;7.78;2.70;;;;;;;39.16;12.10;99756.31;7685931;32;40095;-76
2022/07/21 12:57:45;;;;;;;3.25;2.00;;;;;;;39.55;11.10;99739.66;7685884;32;40027;-76
2022/07/21 13:02:01;;;;;;;6.75;2.03;;;;;;;39.62;10.59;99733.63;7685663;32;37927;-76
2022/07/21 13:06:17;;;;;;;7.07;2.20;;;;;;;39.99;10.78;99733.66;7672091;32;37791;-76
2022/07/21 13:10:33;;;;;;;6.30;1.95;;;;;;;39.62;11.41;99721.44;7685621;32;40101;-76
2022/07/21 13:14:49;;;;;;;4.60;2.10;;;;;;;39.39;11.61;99720.72;7685755;32;40858;-76
2022/07/21 13:19:06;;;;;;;5.37;2.05;;;;;;;40.06;11.10;99720.34;7685537;32;37966;-76
2022/07/21 13:23:23;;;;;;;6.75;2.28;;;;;;;39.96;10.61;99716.69;7688632;32;37820;-77
2022/07/21 13:27:39;;;;;;;8.05;2.15;;;;;;;40.20;11.24;99713.19;7688772;32;39347;-76
2022/07/21 13:32:02;;;;;;;5.12;2.03;;;;;;;39.75;11.07;99716.34;7703446;32;39906;-74
2022/07/21 13:36:19;;;;;;;4.65;1.98;;;;;;;40.12;11.45;99707.00;7691924;32;37877;-76
2022/07/21 13:40:35;;;;;;;6.60;2.10;;;;;;;40.70;10.85;99703.03;7684047;32;37879;-76
2022/07/21 13:45:13;;;;;;;7.18;2.15;;;;;;;40.52;11.35;99706.00;7700020;32;40727;-75
2022/07/21 13:49:29;;;;;;;8.77;2.08;;;;;;;40.60;10.53;99707.22;7711665;32;39410;-76
2022/07/21 13:53:47;;;;;;;4.60;1.90;;;;;;;40.40;11.03;99704.13;7710761;32;37854;-75
2022/07/21 13:58:03;;;;;;;8.35;2.53;;;;;;;40.77;10.34;99703.97;7710064;32;36915;-75
2022/07/21 14:02:19;;;;;;;6.75;2.35;;;;;;;40.67;10.76;99695.47;7711548;32;39482;-75
2022/07/21 14:06:35;;;;;;;5.78;1.95;;;;;;;40.33;10.57;99694.59;7710911;32;39929;-75
2022/07/21 14:10:57;;;;;;;6.18;1.90;;;;;;;40.28;10.98;99689.53;7711716;32;37616;-74
2022/07/21 14:15:13;;;;;;;3.65;2.10;;;;;;;39.95;11.67;99684.53;7710981;32;37028;-75
2022/07/21 14:19:29;;;;;;;9.02;2.17;;;;;;;40.08;10.88;99678.63;7710202;32;39428;-76
2022/07/21 14:23:46;;;;;;;5.37;2.00;;;;;;;40.73;10.88;99672.72;7710638;32;39848;-75
2022/07/21 14:28:03;;;;;;;7.03;2.20;;;;;;;40.73;10.47;99676.38;7710567;32;38704;-75
2022/07/21 14:32:22;;;;;;;5.53;2.03;;;;;;;41.32;10.83;99669.41;7711425;32;36806;-75
2022/07/21 14:36:38;;;;;;;5.50;2.25;;;;;;;41.21;10.05;99669.16;7710415;32;39511;-75
2022/07/21 14:40:54;;;;;;;5.35;2.50;;;;;;;41.16;10.04;99676.31;7710388;32;40817;-76
2022/07/21 14:45:10;;;;;;;7.07;2.20;;;;;;;41.71;9.96;99668.63;7710140;32;37823;-75
2022/07/21 14:49:35;;;;;;;4.25;2.33;;;;;;;41.73;9.81;99669.75;7710963;32;37141;-75
2022/07/21 14:53:51;;;;;;;3.45;2.10;;;;;;;41.51;9.96;99663.56;7711049;32;39317;-76
2022/07/21 14:58:08;;;;;;;6.75;1.95;;;;;;;41.99;9.72;99664.22;7710422;32;40113;-75
2022/07/21 15:02:24;;;;;;;3.83;2.08;;;;;;;41.33;9.80;99667.31;7710913;32;38508;-76
2022/07/21 15:06:43;;;;;;;11.20;1.90;;;;;;;41.47;9.62;99658.81;7710120;32;36866;-75
2022/07/21 15:10:59;;;;;;;3.33;1.90;;;;;;;40.68;10.36;99661.97;7710815;32;40526;-76
2022/07/21 15:15:16;;;;;;;9.48;2.15;;;;;;;40.59;10.52;99654.22;7710223;32;38447;-76
2022/07/21 15:19:33;;;;;;;5.15;2.15;;;;;;;40.58;10.35;99652.63;7709802;32;37867;-75
2022/07/21 15:23:49;;;;;;;9.98;2.33;;;;;;;40.80;10.22;99652.38;7710433;32;37363;-75
2022/07/21 15:28:06;;;;;;;5.37;2.10;;;;;;;40.48;10.75;99648.25;7709847;32;40192;-75
2022/07/21 15:32:22;;;;;;;5.30;2.08;;;;;;;40.82;10.04;99649.06;7710442;32;40739;-75
2022/07/21 15:36:40;;;;;;;12.70;2.55;;;;;;;40.51;10.99;99642.34;7709573;32;38843;-75
2022/07/21 15:40:56;;;;;;;6.55;2.08;;;;;;;40.52;10.93;99635.37;7709670;32;37114;-76
2022/07/21 15:45:13;;;;;;;9.98;2.10;;;;;;;40.30;10.60;99638.44;7709822;32;39432;-75
2022/07/21 15:49:29;;;;;;;16.30;2.25;;;;;;;40.62;10.87;99641.84;7708376;32;39871;-75
2022/07/21 15:53:47;;;;;;;10.80;2.20;;;;;;;40.64;10.57;99645.00;7709735;32;37862;-75
2022/07/21 15:58:03;;;;;;;5.25;2.20;;;;;;;40.53;10.53;99639.00;7709367;32;38602;-75
2022/07/21 16:02:20;;;;;;;5.05;2.03;;;;;;;40.13;10.94;99640.09;7709726;32;40024;-74
2022/07/21 16:06:36;;;;;;;9.70;2.15;;;;;;;40.46;10.71;99639.38;7709378;32;40869;-75
2022/07/21 16:10:53;;;;;;;7.70;2.30;;;;;;;40.19;10.88;99643.87;7708811;32;38000;-75
2022/07/21 16:15:10;;;;;;;3.95;1.90;;;;;;;39.89;11.43;99640.75;7709358;32;37236;-76
2022/07/21 16:19:27;;;;;;;9.27;2.12;;;;;;;39.98;11.01;99637.91;7708881;32;39989;-76
2022/07/21 16:23:43;;;;;;;4.30;2.30;;;;;;;39.85;11.28;99637.28;7691360;32;40016;-75
2022/07/21 16:27:59;;;;;;;3.97;1.62;;;;;;;39.74;11.17;99636.94;7708635;32;37985;-75
2022/07/21 16:32:15;;;;;;;3.90;2.10;;;;;;;39.64;11.13;99633.34;7708930;32;37797;-76
2022/07/21 16:36:31;;;;;;;9.75;2.40;;;;;;;39.06;11.84;99632.16;7707451;32;39346;-75
2022/07/21 16:40:47;;;;;;;2.90;2.00;;;;;;;39.55;11.31;99631.28;7708447;32;40027;-76
2022/07/21 16:45:05;;;;;;;4.20;1.87;;;;;;;39.55;11.52;99630.47;7707828;32;38373;-75
2022/07/21 16:49:24;;;;;;;5.00;1.67;;;;;;;39.34;11.74;99629.34;7708640;32;37148;-76
2022/07/21 16:53:40;;;;;;;6.47;2.10;;;;;;;39.32;12.20;99634.72;7708126;32;39990;-76
2022/07/21 16:57:56;;;;;;;5.20;2.00;;;;;;;39.16;12.33;99644.38;7707999;32;40759;-76
2022/07/21 17:02:12;;;;;;;6.97;2.12;;;;;;;39.28;12.29;99645.50;7709775;32;37947;-75
2022/07/21 18:08:35;;;;;;;8.35;2.30;;;;;;;37.90;14.10;99643.63;7832795;32;233384;-74
2022/07/21 18:12:52;;;;;;;4.72;2.10;;;;;;;37.90;14.10;99643.63;7811901;32;39711;-74
2022/07/21 18:17:08;;;;;;;3.47;1.85;;;;;;;37.12;14.94;99653.66;7806848;32;38776;-75
2022/07/21 18:21:24;;;;;;;4.12;2.12;;;;;;;36.73;15.13;99644.41;7793696;32;36565;-73
2022/07/21 18:25:40;;;;;;;6.50;1.90;;;;;;;36.60;14.74;99658.56;7793711;32;38960;-74
2022/07/21 18:29:56;;;;;;;4.30;1.95;;;;;;;35.76;16.00;99664.31;7755324;32;40861;-74
2022/07/21 18:34:13;;;;;;;6.40;2.30;;;;;;;35.72;15.91;99659.53;7752689;32;38682;-73
2022/07/21 18:38:29;;;;;;;9.60;3.25;;;;;;;35.70;16.56;99666.84;7766474;32;36830;-74
2022/07/21 18:42:45;;;;;;;18.20;2.75;;;;;;;35.42;17.40;99666.37;7777092;32;39103;-74
2022/07/21 18:47:01;;;;;;;20.67;2.97;;;;;;;35.17;18.05;99681.19;7793095;32;39969;-73
2022/07/21 18:51:17;;;;;;;10.93;2.55;;;;;;;34.95;18.05;99670.38;7793179;32;37960;-74
2022/07/21 18:55:34;;;;;;;5.28;2.58;;;;;;;34.75;18.35;99678.94;7793176;32;36902;-74
2022/07/21 18:59:50;;;;;;;16.62;2.70;;;;;;;34.57;18.41;99684.19;7793215;32;39821;-73
2022/07/21 19:04:06;;;;;;;9.13;2.80;;;;;;;34.53;18.40;99694.78;7793028;32;39650;-73
2022/07/21 19:08:22;;;;;;;5.20;2.22;;;;;;;34.40;18.40;99697.50;7792848;32;37729;-73
2022/07/21 19:12:38;;;;;;;10.98;3.05;;;;;;;34.29;18.52;99691.28;7770149;32;38424;-74
2022/07/21 19:16:54;;;;;;;11.43;2.67;;;;;;;34.06;19.30;99701.41;7765803;32;39882;-75
2022/07/21 19:21:11;;;;;;;5.55;2.37;;;;;;;33.99;19.17;99696.69;7767253;32;40776;-75
2022/07/21 19:25:29;;;;;;;4.85;2.30;;;;;;;33.79;19.65;99721.31;7783997;32;36862;-74
2022/07/21 19:29:46;;;;;;;10.43;2.20;;;;;;;33.65;19.97;99717.53;7787922;32;36997;-74
2022/07/21 19:34:04;;;;;;;10.55;2.58;;;;;;;33.45;19.99;99711.81;7792707;32;39928;-74
2022/07/21 19:38:21;;;;;;;17.30;2.70;;;;;;;33.40;20.20;99717.16;7777299;32;40010;-74
2022/07/21 19:42:37;;;;;;;7.60;2.40;;;;;;;33.25;20.21;99727.91;7792979;32;38678;-74
2022/07/21 19:46:54;;;;;;;8.48;2.47;;;;;;;33.26;19.88;99732.34;7792372;32;36926;-75
2022/07/21 19:51:10;;;;;;;2.67;1.95;;;;;;;33.19;19.82;99740.94;7792567;32;38878;-74
2022/07/21 19:55:26;;;;;;;3.53;2.08;;;;;;;33.03;20.52;99736.69;7792634;32;39667;-73
2022/07/21 19:59:42;;;;;;;4.97;2.20;;;;;;;32.89;20.80;99743.38;7791860;32;38404;-76
2022/07/21 20:03:59;;;;;;;8.27;2.20;;;;;;;32.74;20.66;99739.94;7791999;32;36919;-74
2022/07/21 20:08:15;;;;;;;6.00;2.20;;;;;;;32.50;21.21;99736.22;7770289;32;37544;-74
2022/07/21 20:12:31;;;;;;;6.03;2.35;;;;;;;32.33;21.33;99746.50;7766660;32;39614;-74
2022/07/21 20:16:47;;;;;;;8.82;2.35;;;;;;;32.18;21.00;99745.88;7776494;32;38151;-74
2022/07/21 20:21:04;;;;;;;5.70;2.37;;;;;;;32.08;21.98;99752.44;7782304;32;37731;-75
2022/07/21 20:25:20;;;;;;;6.28;2.28;;;;;;;31.93;22.33;99765.06;7790539;32;39852;-76
2022/07/21 20:29:37;;;;;;;8.80;2.10;;;;;;;31.90;22.07;99760.25;7791718;32;39669;-75
2022/07/21 20:33:53;;;;;;;5.07;2.30;;;;;;;31.58;21.89;99773.44;7790260;32;38637;-73
2022/07/21 20:38:10;;;;;;;5.82;1.98;;;;;;;31.69;21.76;99767.69;7791654;32;36926;-74
2022/07/21 20:42:27;;;;;;;10.98;2.85;;;;;;;31.44;21.83;99774.34;7776446;32;39117;-73
2022/07/21 20:46:43;;;;;;;10.93;2.47;;;;;;;31.31;21.62;99770.41;7791168;32;40998;-74
2022/07/21 20:50:59;;;;;;;6.28;2.50;;;;;;;31.03;23.80;99775.03;7790512;32;38020;-73
2022/07/21 20:55:15;;;;;;;7.60;2.12;;;;;;;30.71;24.12;99778.78;7776567;32;36908;-74
2022/07/21 20:59:38;;;;;;;4.30;2.20;;;;;;;30.80;24.06;99771.91;7768037;32;39971;-74
2022/07/21 21:03:54;;;;;;;8.48;2.20;;;;;;;30.44;24.68;99769.25;7775614;32;40519;-73
2022/07/21 21:08:10;;;;;;;6.60;2.55;;;;;;;30.43;24.74;99779.72;7787141;32;38476;-73
2022/07/21 21:12:33;;;;;;;9.95;2.40;;;;;;;30.37;24.30;99783.34;7763061;32;37682;-72